createdAt,value
2022-08-17T00:03:20.874Z,82.28
2022-08-17T00:08:21.740Z,81.13
2022-08-17T00:13:19.545Z,81.38
2022-08-17T00:18:58.300Z,81.88
2022-08-17T00:23:29.637Z,83.18
2022-08-17T00:28:23.547Z,82.63
2022-08-17T00:33:26.714Z,81.89
2022-08-17T00:38:21.522Z,81.41
2022-08-17T00:43:20.849Z,85.13
2022-08-17T00:48:29.253Z,85.96
2022-08-17T00:53:24.260Z,83.35
2022-08-17T00:58:19.289Z,83.95
2022-08-17T01:03:31.142Z,84.12
2022-08-17T01:08:28.293Z,82.98
2022-08-17T01:13:25.598Z,85.59
2022-08-17T01:18:19.204Z,87.91
2022-08-17T01:23:16.393Z,86.87
2022-08-17T01:28:33.568Z,86.43
2022-08-17T01:33:27.630Z,86.68
2022-08-17T01:38:26.485Z,88.56
2022-08-17T01:43:27.767Z,88.87
2022-08-17T01:48:22.004Z,86.76
2022-08-17T01:53:21.252Z,85.52
2022-08-17T01:58:16.540Z,88.14
2022-08-17T02:03:10.672Z,90.59
2022-08-17T02:08:05.076Z,87.97
2022-08-17T02:12:59.371Z,87.75
2022-08-17T02:17:55.089Z,87.72
2022-08-17T02:22:49.860Z,87.56
2022-08-17T02:27:43.861Z,89.69
2022-08-17T02:32:37.590Z,89.58
2022-08-17T02:37:35.684Z,89.56
2022-08-17T02:42:33.846Z,89.43
2022-08-17T02:47:27.852Z,88.07
2022-08-17T02:52:43.020Z,89.05
2022-08-17T02:57:39.237Z,88.73
2022-08-17T03:02:32.604Z,88.23
2022-08-17T03:07:25.919Z,89.56
2022-08-17T03:12:19.339Z,89.00
2022-08-17T03:17:17.450Z,88.85
2022-08-17T03:22:35.348Z,88.84
2022-08-17T03:27:24.681Z,89.83
2022-08-17T03:32:20.753Z,90.80
2022-08-17T03:37:14.775Z,91.26
2022-08-17T03:42:31.526Z,92.51
2022-08-17T03:47:45.108Z,91.54
2022-08-17T03:52:56.057Z,89.61
2022-08-17T03:57:49.430Z,87.78
2022-08-17T04:02:44.647Z,88.16
2022-08-17T04:07:38.034Z,87.86
2022-08-17T04:12:46.470Z,87.54
2022-08-17T04:17:39.958Z,87.23
2022-08-17T04:22:34.844Z,88.08
2022-08-17T04:27:28.375Z,89.60
2022-08-17T04:32:25.014Z,89.58
2022-08-17T04:37:36.421Z,88.68
2022-08-17T04:42:29.863Z,88.50
2022-08-17T04:47:23.273Z,87.22
2022-08-17T04:52:29.792Z,87.52
2022-08-17T04:57:31.303Z,87.54
2022-08-17T05:02:32.973Z,87.66
2022-08-17T05:07:30.894Z,87.39
2022-08-17T05:12:25.269Z,87.20
2022-08-17T05:17:19.925Z,87.10
2022-08-17T05:22:15.085Z,89.28
2022-08-17T05:27:08.456Z,87.21
2022-08-17T05:32:39.536Z,88.31
2022-08-17T05:37:25.452Z,88.42
2022-08-17T05:42:20.504Z,85.24
2022-08-17T05:47:22.217Z,85.78
2022-08-17T05:52:27.489Z,84.21
2022-08-17T05:57:53.347Z,81.08
2022-08-17T06:03:13.132Z,80.32
2022-08-17T06:08:29.409Z,79.23
2022-08-17T06:13:40.781Z,77.66
2022-08-17T06:18:47.296Z,79.81
2022-08-17T06:23:49.694Z,80.08
2022-08-17T06:28:52.543Z,78.82
2022-08-17T06:33:46.396Z,80.67
2022-08-17T06:38:54.398Z,84.01
2022-08-17T06:44:04.124Z,80.64
2022-08-17T06:49:17.125Z,79.30
2022-08-17T06:54:23.261Z,81.03
2022-08-17T06:59:26.696Z,82.27
2022-08-17T07:04:40.112Z,73.75
2022-08-17T07:09:39.773Z,76.10
2022-08-17T07:14:39.406Z,74.38
2022-08-17T07:19:36.205Z,74.63
2022-08-17T07:24:45.216Z,74.07
2022-08-17T07:29:47.820Z,67.72
2022-08-17T07:35:19.901Z,72.04
2022-08-17T07:40:29.911Z,70.26
2022-08-17T07:45:49.131Z,63.43
2022-08-17T07:50:42.508Z,62.58
2022-08-17T07:55:45.351Z,64.35
2022-08-17T08:00:38.779Z,62.69
2022-08-17T08:05:49.317Z,60.89
2022-08-17T08:10:57.840Z,55.97
2022-08-17T08:15:54.736Z,56.87
2022-08-17T08:20:54.037Z,58.39
2022-08-17T08:26:05.093Z,57.12
2022-08-17T08:31:24.371Z,57.92
2022-08-17T08:37:12.690Z,57.76
2022-08-17T08:42:10.400Z,61.22
2022-08-17T08:47:19.312Z,61.47
2022-08-17T08:52:30.993Z,59.49
2022-08-17T08:57:34.865Z,56.63
2022-08-17T09:02:59.549Z,55.90
2022-08-17T09:08:06.500Z,55.52
2022-08-17T09:13:15.209Z,53.59
2022-08-17T09:19:00.906Z,55.68
2022-08-17T09:23:38.252Z,53.95
2022-08-17T09:28:38.303Z,54.79
2022-08-17T09:33:39.848Z,53.84
2022-08-17T09:38:46.106Z,53.73
2022-08-17T09:43:50.328Z,54.01
2022-08-17T09:48:55.349Z,54.41
2022-08-17T09:53:49.841Z,54.10
2022-08-17T09:59:09.402Z,52.96
2022-08-17T10:04:44.259Z,52.89
2022-08-17T10:10:01.971Z,51.83
2022-08-17T10:15:16.025Z,51.00
2022-08-17T10:20:18.043Z,50.74
2022-08-17T10:25:53.585Z,51.04
2022-08-17T10:31:23.229Z,50.71
2022-08-17T10:36:24.457Z,50.61
2022-08-17T10:41:30.511Z,51.42
2022-08-17T10:46:46.325Z,49.95
2022-08-17T10:51:42.716Z,48.64
2022-08-17T10:56:57.979Z,49.17
2022-08-17T11:02:17.876Z,51.68
2022-08-17T11:07:29.308Z,50.81
2022-08-17T11:12:44.780Z,53.25
2022-08-17T11:18:28.402Z,49.65
2022-08-17T11:24:01.404Z,50.95
2022-08-17T11:29:09.632Z,49.72
2022-08-17T11:34:07.364Z,48.79
2022-08-17T11:39:21.735Z,49.43
2022-08-17T11:44:37.667Z,47.79
2022-08-17T11:50:17.251Z,47.23
2022-08-17T11:55:48.059Z,47.54
2022-08-17T12:00:55.674Z,46.90
2022-08-17T12:05:49.627Z,46.43
2022-08-17T12:11:03.189Z,42.81
2022-08-17T12:16:01.501Z,42.57
2022-08-17T12:21:48.222Z,42.52
2022-08-17T12:26:55.064Z,43.45
2022-08-17T12:31:52.353Z,42.83
2022-08-17T12:36:47.281Z,44.70
2022-08-17T12:41:45.347Z,44.04
2022-08-17T12:46:56.104Z,43.43
2022-08-17T12:51:50.736Z,44.78
2022-08-17T12:56:49.035Z,44.83
2022-08-17T13:01:43.427Z,41.61
2022-08-17T13:06:37.628Z,45.16
2022-08-17T13:11:30.912Z,45.58
2022-08-17T13:16:29.772Z,45.55
2022-08-17T13:21:30.615Z,42.57
2022-08-17T13:26:30.311Z,44.52
2022-08-17T13:31:47.453Z,45.57
2022-08-17T13:36:46.276Z,45.43
2022-08-17T13:41:42.497Z,44.54
2022-08-17T13:46:37.549Z,44.30
2022-08-17T13:51:45.904Z,43.39
2022-08-17T13:56:57.628Z,45.17
2022-08-17T14:01:54.332Z,44.59
2022-08-17T14:06:54.788Z,44.97
2022-08-17T14:11:49.407Z,44.08
2022-08-17T14:16:43.265Z,44.20
2022-08-17T14:21:39.964Z,45.25
2022-08-17T14:26:34.516Z,45.31
2022-08-17T14:31:30.253Z,47.29
2022-08-17T14:36:31.240Z,46.81
2022-08-17T14:41:41.957Z,47.20
2022-08-17T14:46:35.593Z,48.45
2022-08-17T14:51:36.964Z,49.06
2022-08-17T14:56:47.146Z,49.72
2022-08-17T15:01:57.308Z,47.86
2022-08-17T15:06:57.946Z,48.59
2022-08-17T15:11:59.150Z,48.33
2022-08-17T15:16:52.754Z,48.74
2022-08-17T15:21:47.048Z,50.19
2022-08-17T15:26:46.936Z,49.38
2022-08-17T15:31:44.380Z,50.27
2022-08-17T15:36:38.836Z,51.30
2022-08-17T15:41:36.560Z,48.58
2022-08-17T15:46:32.459Z,48.79
2022-08-17T15:51:42.075Z,49.96
2022-08-17T15:56:35.583Z,47.83
2022-08-17T16:03:04.662Z,49.35
2022-08-17T16:06:57.185Z,50.81
2022-08-17T16:11:55.876Z,50.01
2022-08-17T16:16:49.751Z,49.09
2022-08-17T16:22:35.177Z,50.98
2022-08-17T16:27:41.669Z,50.19
2022-08-17T16:32:36.340Z,50.72
2022-08-17T16:37:35.034Z,53.02
2022-08-17T16:42:33.618Z,56.09
2022-08-17T16:47:36.224Z,58.09
2022-08-17T16:52:38.121Z,59.49
2022-08-17T16:57:31.893Z,60.83
2022-08-17T17:02:37.195Z,61.43
2022-08-17T17:07:51.737Z,62.71
2022-08-17T17:13:01.516Z,62.42
2022-08-17T17:18:06.958Z,58.17
2022-08-17T17:23:11.316Z,56.28
2022-08-17T17:28:18.135Z,56.65
2022-08-17T17:33:22.534Z,55.30
2022-08-17T17:38:29.264Z,57.62
2022-08-17T17:43:38.872Z,56.82
2022-08-17T17:48:33.457Z,57.24
2022-08-17T17:53:43.694Z,58.56
2022-08-17T17:58:55.477Z,60.07
2022-08-17T18:04:57.349Z,60.13
2022-08-17T18:11:12.169Z,59.86
2022-08-17T18:16:16.601Z,60.15
2022-08-17T18:21:29.167Z,59.53
2022-08-17T18:26:59.184Z,59.36
2022-08-17T18:32:34.993Z,60.12
2022-08-17T18:37:48.100Z,60.34
2022-08-17T18:42:45.809Z,61.69
2022-08-17T18:47:56.382Z,62.87
2022-08-17T18:52:55.299Z,63.66
2022-08-17T18:57:54.337Z,61.81
2022-08-17T19:02:54.210Z,59.70
2022-08-17T19:07:48.796Z,58.77
2022-08-17T19:12:47.877Z,58.92
2022-08-17T19:17:49.020Z,59.46
2022-08-17T19:23:17.722Z,59.80
2022-08-17T19:28:22.413Z,61.18
2022-08-17T19:33:18.018Z,60.63
2022-08-17T19:38:31.393Z,58.97
2022-08-17T19:43:43.167Z,58.00
2022-08-17T19:48:53.152Z,59.49
2022-08-17T19:54:05.325Z,58.85
2022-08-17T19:59:14.255Z,59.49
2022-08-17T20:04:33.860Z,58.47
2022-08-17T20:09:39.585Z,58.48
2022-08-17T20:14:55.344Z,60.38
2022-08-17T20:19:56.012Z,59.85
2022-08-17T20:25:06.336Z,59.48
2022-08-17T20:30:10.864Z,61.87
2022-08-17T20:35:22.677Z,64.89
2022-08-17T20:40:27.016Z,65.72
2022-08-17T20:46:13.726Z,58.08
2022-08-17T20:51:32.307Z,58.68
2022-08-17T20:56:57.270Z,62.89
2022-08-17T21:02:17.548Z,65.75
2022-08-17T21:07:33.063Z,71.87
2022-08-17T21:12:44.370Z,73.71
2022-08-17T21:17:59.180Z,76.48
2022-08-17T21:23:20.389Z,76.78
2022-08-17T21:28:23.137Z,78.61
2022-08-17T21:33:32.669Z,79.42
2022-08-17T21:38:37.293Z,77.74
2022-08-17T21:43:35.518Z,76.75
2022-08-17T21:48:32.352Z,77.25
2022-08-17T21:53:37.877Z,75.41
2022-08-17T21:58:35.666Z,74.53
2022-08-17T22:03:33.461Z,72.82
2022-08-17T22:08:28.155Z,73.30
2022-08-17T22:13:26.793Z,73.72
2022-08-17T22:18:28.911Z,74.14
2022-08-17T22:23:50.784Z,75.02
2022-08-17T22:28:50.012Z,76.07
2022-08-17T22:33:47.944Z,77.07
2022-08-17T22:38:43.815Z,77.78
2022-08-17T22:43:40.349Z,78.83
2022-08-17T22:48:38.056Z,77.69
2022-08-17T22:53:54.765Z,77.47
2022-08-17T22:59:14.108Z,77.06
2022-08-17T23:04:13.027Z,79.53
2022-08-17T23:09:08.527Z,79.08
2022-08-17T23:14:03.800Z,78.54
2022-08-17T23:18:58.290Z,80.61
2022-08-17T23:23:52.221Z,81.83
2022-08-17T23:28:45.669Z,80.90
2022-08-17T23:33:42.244Z,80.04
2022-08-17T23:38:36.153Z,79.38
2022-08-17T23:43:31.555Z,79.21
2022-08-17T23:48:36.031Z,78.09
2022-08-17T23:53:36.273Z,78.23
2022-08-17T23:58:29.640Z,78.75
